sensor_id;sensor_type;location;lat;lon;timestamp;temperature;humidity
35668;DHT22;22158;59.280;17.806;2023-05-15T05:00:45;11.20;99.90
35668;DHT22;22158;59.280;17.806;2023-05-15T05:03:10;11.30;99.90
35668;DHT22;22158;59.280;17.806;2023-05-15T05:05:36;11.50;99.90
35668;DHT22;22158;59.280;17.806;2023-05-15T05:08:02;11.60;99.90
35668;DHT22;22158;59.280;17.806;2023-05-15T05:10:27;11.80;99.90
35668;DHT22;22158;59.280;17.806;2023-05-15T05:12:53;12.00;99.90
35668;DHT22;22158;59.280;17.806;2023-05-15T05:15:19;12.00;99.90
35668;DHT22;22158;59.280;17.806;2023-05-15T05:17:45;12.20;99.90
35668;DHT22;22158;59.280;17.806;2023-05-15T05:20:10;12.30;99.90
35668;DHT22;22158;59.280;17.806;2023-05-15T05:22:37;12.30;99.90
35668;DHT22;22158;59.280;17.806;2023-05-15T05:25:03;12.40;99.90
35668;DHT22;22158;59.280;17.806;2023-05-15T05:27:29;12.50;99.90
35668;DHT22;22158;59.280;17.806;2023-05-15T05:29:54;12.60;99.90
35668;DHT22;22158;59.280;17.806;2023-05-15T05:32:20;12.60;99.90
35668;DHT22;22158;59.280;17.806;2023-05-15T05:34:46;12.60;99.90
35668;DHT22;22158;59.280;17.806;2023-05-15T05:37:11;12.60;99.90
35668;DHT22;22158;59.280;17.806;2023-05-15T05:39:37;12.70;99.90
35668;DHT22;22158;59.280;17.806;2023-05-15T05:42:02;12.80;99.90
35668;DHT22;22158;59.280;17.806;2023-05-15T05:44:28;12.80;99.90
35668;DHT22;22158;59.280;17.806;2023-05-15T05:46:54;12.90;99.90
35668;DHT22;22158;59.280;17.806;2023-05-15T05:49:21;13.00;99.90
35668;DHT22;22158;59.280;17.806;2023-05-15T05:51:47;13.10;99.90
35668;DHT22;22158;59.280;17.806;2023-05-15T05:54:13;13.30;99.90
35668;DHT22;22158;59.280;17.806;2023-05-15T05:56:42;13.40;99.90
35668;DHT22;22158;59.280;17.806;2023-05-15T05:59:08;13.50;99.90
35668;DHT22;22158;59.280;17.806;2023-05-15T06:01:34;13.50;99.90
35668;DHT22;22158;59.280;17.806;2023-05-15T06:04:00;13.50;99.90
35668;DHT22;22158;59.280;17.806;2023-05-15T06:06:26;13.50;99.90
35668;DHT22;22158;59.280;17.806;2023-05-15T06:08:51;13.50;99.90
35668;DHT22;22158;59.280;17.806;2023-05-15T06:11:17;13.60;99.90
35668;DHT22;22158;59.280;17.806;2023-05-15T06:13:42;13.60;99.90
35668;DHT22;22158;59.280;17.806;2023-05-15T06:16:08;13.60;99.90
35668;DHT22;22158;59.280;17.806;2023-05-15T06:18:34;13.60;99.90
35668;DHT22;22158;59.280;17.806;2023-05-15T06:20:59;13.60;99.90
35668;DHT22;22158;59.280;17.806;2023-05-15T06:23:28;13.70;99.90
35668;DHT22;22158;59.280;17.806;2023-05-15T06:25:53;13.80;99.90
35668;DHT22;22158;59.280;17.806;2023-05-15T06:28:19;13.80;99.90
35668;DHT22;22158;59.280;17.806;2023-05-15T06:30:45;14.00;99.90
35668;DHT22;22158;59.280;17.806;2023-05-15T06:33:10;14.10;99.90
35668;DHT22;22158;59.280;17.806;2023-05-15T06:35:36;14.30;99.90
35668;DHT22;22158;59.280;17.806;2023-05-15T06:38:01;14.40;99.90
35668;DHT22;22158;59.280;17.806;2023-05-15T06:40:27;14.60;99.90
35668;DHT22;22158;59.280;17.806;2023-05-15T06:42:52;14.80;99.90
35668;DHT22;22158;59.280;17.806;2023-05-15T06:45:18;15.00;99.90
35668;DHT22;22158;59.280;17.806;2023-05-15T06:47:43;15.30;99.00
35668;DHT22;22158;59.280;17.806;2023-05-15T06:50:09;15.60;99.50
35668;DHT22;22158;59.280;17.806;2023-05-15T06:52:35;15.80;98.70
35668;DHT22;22158;59.280;17.806;2023-05-15T06:55:01;15.90;97.60
35668;DHT22;22158;59.280;17.806;2023-05-15T06:57:26;16.10;97.10
35668;DHT22;22158;59.280;17.806;2023-05-15T06:59:52;16.30;96.30
35668;DHT22;22158;59.280;17.806;2023-05-15T07:02:17;16.30;96.70
35668;DHT22;22158;59.280;17.806;2023-05-15T07:04:43;16.40;96.10
35668;DHT22;22158;59.280;17.806;2023-05-15T07:07:09;16.60;96.40
35668;DHT22;22158;59.280;17.806;2023-05-15T07:09:34;16.80;95.40
35668;DHT22;22158;59.280;17.806;2023-05-15T07:12:00;16.90;94.80
35668;DHT22;22158;59.280;17.806;2023-05-15T07:14:26;17.00;94.40
35668;DHT22;22158;59.280;17.806;2023-05-15T07:16:51;17.10;94.20
35668;DHT22;22158;59.280;17.806;2023-05-15T07:19:17;17.20;93.50
35668;DHT22;22158;59.280;17.806;2023-05-15T07:21:46;17.40;94.20
35668;DHT22;22158;59.280;17.806;2023-05-15T07:24:11;17.50;94.00
35668;DHT22;22158;59.280;17.806;2023-05-15T07:26:37;17.70;93.10
35668;DHT22;22158;59.280;17.806;2023-05-15T07:29:02;17.80;92.90
35668;DHT22;22158;59.280;17.806;2023-05-15T07:31:28;18.00;92.70
35668;DHT22;22158;59.280;17.806;2023-05-15T07:33:55;18.10;92.70
35668;DHT22;22158;59.280;17.806;2023-05-15T07:36:21;18.30;91.20
35668;DHT22;22158;59.280;17.806;2023-05-15T07:38:46;18.40;91.30
35668;DHT22;22158;59.280;17.806;2023-05-15T07:41:12;18.50;90.30
35668;DHT22;22158;59.280;17.806;2023-05-15T07:43:37;18.70;89.60
35668;DHT22;22158;59.280;17.806;2023-05-15T07:46:03;18.90;87.30
35668;DHT22;22158;59.280;17.806;2023-05-15T07:48:29;19.00;87.90
35668;DHT22;22158;59.280;17.806;2023-05-15T07:50:54;19.20;86.10
35668;DHT22;22158;59.280;17.806;2023-05-15T07:53:21;19.30;85.40
35668;DHT22;22158;59.280;17.806;2023-05-15T07:55:47;19.30;88.60
35668;DHT22;22158;59.280;17.806;2023-05-15T07:58:12;19.40;89.00
35668;DHT22;22158;59.280;17.806;2023-05-15T08:00:38;19.40;87.10
35668;DHT22;22158;59.280;17.806;2023-05-15T08:03:04;19.60;87.40
35668;DHT22;22158;59.280;17.806;2023-05-15T08:05:30;19.60;85.90
35668;DHT22;22158;59.280;17.806;2023-05-15T08:07:56;19.80;84.90
35668;DHT22;22158;59.280;17.806;2023-05-15T08:10:22;19.80;86.80
35668;DHT22;22158;59.280;17.806;2023-05-15T08:12:48;19.80;85.30
35668;DHT22;22158;59.280;17.806;2023-05-15T08:15:15;19.90;82.60
35668;DHT22;22158;59.280;17.806;2023-05-15T08:17:40;20.00;82.10
35668;DHT22;22158;59.280;17.806;2023-05-15T08:20:06;20.10;80.50
35668;DHT22;22158;59.280;17.806;2023-05-15T08:22:32;20.10;82.10
35668;DHT22;22158;59.280;17.806;2023-05-15T08:24:58;20.20;80.20
35668;DHT22;22158;59.280;17.806;2023-05-15T08:27:25;20.20;80.80
35668;DHT22;22158;59.280;17.806;2023-05-15T08:29:50;20.20;79.50
35668;DHT22;22158;59.280;17.806;2023-05-15T08:32:17;20.40;76.30
35668;DHT22;22158;59.280;17.806;2023-05-15T08:34:43;20.30;76.10
35668;DHT22;22158;59.280;17.806;2023-05-15T08:37:08;20.30;75.10
35668;DHT22;22158;59.280;17.806;2023-05-15T08:39:34;20.40;75.30
35668;DHT22;22158;59.280;17.806;2023-05-15T08:42:27;20.50;75.70
35668;DHT22;22158;59.280;17.806;2023-05-15T08:44:55;20.50;73.20
35668;DHT22;22158;59.280;17.806;2023-05-15T08:47:20;20.50;72.80
35668;DHT22;22158;59.280;17.806;2023-05-15T08:52:43;20.50;72.20
35668;DHT22;22158;59.280;17.806;2023-05-15T08:55:11;20.40;72.50
35668;DHT22;22158;59.280;17.806;2023-05-15T08:57:38;20.60;72.90
35668;DHT22;22158;59.280;17.806;2023-05-15T09:00:05;20.60;74.30
35668;DHT22;22158;59.280;17.806;2023-05-15T09:02:35;20.80;70.50
35668;DHT22;22158;59.280;17.806;2023-05-15T09:05:01;20.90;73.90
35668;DHT22;22158;59.280;17.806;2023-05-15T09:07:31;21.00;73.20
35668;DHT22;22158;59.280;17.806;2023-05-15T09:09:57;21.00;72.20
35668;DHT22;22158;59.280;17.806;2023-05-15T09:12:26;21.20;70.70
35668;DHT22;22158;59.280;17.806;2023-05-15T09:15:16;21.40;67.80
35668;DHT22;22158;59.280;17.806;2023-05-15T09:17:43;21.30;67.70
35668;DHT22;22158;59.280;17.806;2023-05-15T09:20:36;21.20;66.20
35668;DHT22;22158;59.280;17.806;2023-05-15T09:23:04;21.30;66.10
35668;DHT22;22158;59.280;17.806;2023-05-15T09:25:35;21.50;63.50
35668;DHT22;22158;59.280;17.806;2023-05-15T09:28:05;21.50;63.80
35668;DHT22;22158;59.280;17.806;2023-05-15T09:30:31;21.60;66.60
35668;DHT22;22158;59.280;17.806;2023-05-15T09:32:59;21.70;64.40
35668;DHT22;22158;59.280;17.806;2023-05-15T09:35:33;21.90;62.80
35668;DHT22;22158;59.280;17.806;2023-05-15T09:37:59;22.10;61.50
35668;DHT22;22158;59.280;17.806;2023-05-15T09:40:28;22.10;63.30
35668;DHT22;22158;59.280;17.806;2023-05-15T09:42:55;22.30;61.70
35668;DHT22;22158;59.280;17.806;2023-05-15T09:45:20;22.40;57.30
35668;DHT22;22158;59.280;17.806;2023-05-15T09:47:46;22.40;58.50
35668;DHT22;22158;59.280;17.806;2023-05-15T09:50:12;22.40;58.90
35668;DHT22;22158;59.280;17.806;2023-05-15T09:52:38;22.50;57.50
35668;DHT22;22158;59.280;17.806;2023-05-15T09:55:04;22.50;57.60
35668;DHT22;22158;59.280;17.806;2023-05-15T09:57:30;22.40;58.00
35668;DHT22;22158;59.280;17.806;2023-05-15T09:59:59;22.30;58.70
35668;DHT22;22158;59.280;17.806;2023-05-15T10:02:29;22.40;58.60
35668;DHT22;22158;59.280;17.806;2023-05-15T10:04:59;22.40;59.50
35668;DHT22;22158;59.280;17.806;2023-05-15T10:07:29;22.50;61.60
35668;DHT22;22158;59.280;17.806;2023-05-15T10:09:55;22.60;59.00
35668;DHT22;22158;59.280;17.806;2023-05-15T10:12:23;22.60;60.20
35668;DHT22;22158;59.280;17.806;2023-05-15T10:14:49;22.50;59.10
35668;DHT22;22158;59.280;17.806;2023-05-15T10:17:17;22.50;59.10
35668;DHT22;22158;59.280;17.806;2023-05-15T10:19:43;22.50;60.20
35668;DHT22;22158;59.280;17.806;2023-05-15T10:22:10;22.40;58.60
35668;DHT22;22158;59.280;17.806;2023-05-15T10:24:37;22.50;56.80
35668;DHT22;22158;59.280;17.806;2023-05-15T10:27:07;22.40;57.90
35668;DHT22;22158;59.280;17.806;2023-05-15T10:29:34;22.40;56.50
35668;DHT22;22158;59.280;17.806;2023-05-15T10:32:00;22.30;58.10
35668;DHT22;22158;59.280;17.806;2023-05-15T10:34:26;22.30;58.30
35668;DHT22;22158;59.280;17.806;2023-05-15T10:36:53;22.20;55.80
35668;DHT22;22158;59.280;17.806;2023-05-15T10:39:20;22.10;56.10
35668;DHT22;22158;59.280;17.806;2023-05-15T10:41:46;21.80;57.60
35668;DHT22;22158;59.280;17.806;2023-05-15T10:44:14;21.70;56.00
35668;DHT22;22158;59.280;17.806;2023-05-15T10:46:41;21.10;57.00
35668;DHT22;22158;59.280;17.806;2023-05-15T10:49:06;21.00;57.20
35668;DHT22;22158;59.280;17.806;2023-05-15T10:51:32;20.90;58.80
35668;DHT22;22158;59.280;17.806;2023-05-15T10:54:01;20.70;59.30
35668;DHT22;22158;59.280;17.806;2023-05-15T10:56:31;20.60;59.40
35668;DHT22;22158;59.280;17.806;2023-05-15T10:58:57;20.60;59.00
35668;DHT22;22158;59.280;17.806;2023-05-15T11:01:29;20.50;60.40
35668;DHT22;22158;59.280;17.806;2023-05-15T11:06:37;20.40;61.40
35668;DHT22;22158;59.280;17.806;2023-05-15T11:09:31;20.30;61.80
35668;DHT22;22158;59.280;17.806;2023-05-15T11:11:58;20.30;60.00
35668;DHT22;22158;59.280;17.806;2023-05-15T11:17:14;20.30;59.10
35668;DHT22;22158;59.280;17.806;2023-05-15T11:22:33;20.20;58.30
35668;DHT22;22158;59.280;17.806;2023-05-15T11:27:39;20.30;58.10
35668;DHT22;22158;59.280;17.806;2023-05-15T11:30:15;20.30;58.90
35668;DHT22;22158;59.280;17.806;2023-05-15T11:35:40;20.40;60.60
35668;DHT22;22158;59.280;17.806;2023-05-15T11:40:56;20.70;60.90
35668;DHT22;22158;59.280;17.806;2023-05-15T11:43:24;20.80;60.10
35668;DHT22;22158;59.280;17.806;2023-05-15T11:45:52;21.00;60.10
35668;DHT22;22158;59.280;17.806;2023-05-15T11:48:23;21.10;59.60
35668;DHT22;22158;59.280;17.806;2023-05-15T11:50:49;21.10;59.60
35668;DHT22;22158;59.280;17.806;2023-05-15T11:53:15;21.10;59.40
35668;DHT22;22158;59.280;17.806;2023-05-15T11:55:43;21.10;59.90
35668;DHT22;22158;59.280;17.806;2023-05-15T11:58:13;21.20;61.40
35668;DHT22;22158;59.280;17.806;2023-05-15T12:00:39;21.30;62.50
35668;DHT22;22158;59.280;17.806;2023-05-15T12:03:05;21.50;61.30
35668;DHT22;22158;59.280;17.806;2023-05-15T12:05:30;21.70;60.90
35668;DHT22;22158;59.280;17.806;2023-05-15T12:07:57;21.80;60.20
35668;DHT22;22158;59.280;17.806;2023-05-15T12:10:22;21.80;59.20
35668;DHT22;22158;59.280;17.806;2023-05-15T12:12:48;21.80;57.00
35668;DHT22;22158;59.280;17.806;2023-05-15T12:15:15;21.70;55.80
35668;DHT22;22158;59.280;17.806;2023-05-15T12:17:43;21.70;56.60
35668;DHT22;22158;59.280;17.806;2023-05-15T12:20:18;21.60;56.20
35668;DHT22;22158;59.280;17.806;2023-05-15T12:22:44;21.40;57.10
35668;DHT22;22158;59.280;17.806;2023-05-15T12:25:11;21.30;57.70
35668;DHT22;22158;59.280;17.806;2023-05-15T12:27:38;21.30;58.20
35668;DHT22;22158;59.280;17.806;2023-05-15T12:30:04;21.40;58.00
35668;DHT22;22158;59.280;17.806;2023-05-15T12:32:33;21.40;58.90
35668;DHT22;22158;59.280;17.806;2023-05-15T12:34:59;21.40;57.60
35668;DHT22;22158;59.280;17.806;2023-05-15T12:37:25;21.50;58.00
35668;DHT22;22158;59.280;17.806;2023-05-15T12:40:01;21.60;58.10
35668;DHT22;22158;59.280;17.806;2023-05-15T12:42:27;21.70;56.50
35668;DHT22;22158;59.280;17.806;2023-05-15T12:44:54;21.60;56.40
35668;DHT22;22158;59.280;17.806;2023-05-15T12:47:26;21.20;56.10
35668;DHT22;22158;59.280;17.806;2023-05-15T12:49:58;21.20;56.10
35668;DHT22;22158;59.280;17.806;2023-05-15T12:52:27;21.20;57.80
35668;DHT22;22158;59.280;17.806;2023-05-15T12:54:53;21.20;58.60
35668;DHT22;22158;59.280;17.806;2023-05-15T12:57:19;21.30;59.30
35668;DHT22;22158;59.280;17.806;2023-05-15T12:59:45;21.30;57.90
35668;DHT22;22158;59.280;17.806;2023-05-15T13:02:11;21.40;57.60
35668;DHT22;22158;59.280;17.806;2023-05-15T13:04:37;21.40;57.90
35668;DHT22;22158;59.280;17.806;2023-05-15T13:07:03;21.30;57.50
35668;DHT22;22158;59.280;17.806;2023-05-15T13:09:29;21.30;57.10
35668;DHT22;22158;59.280;17.806;2023-05-15T13:11:55;21.30;57.30
35668;DHT22;22158;59.280;17.806;2023-05-15T13:14:21;21.30;58.00
35668;DHT22;22158;59.280;17.806;2023-05-15T13:16:51;21.30;56.10
35668;DHT22;22158;59.280;17.806;2023-05-15T13:19:17;21.30;57.50
35668;DHT22;22158;59.280;17.806;2023-05-15T13:21:42;21.40;57.50
35668;DHT22;22158;59.280;17.806;2023-05-15T13:24:10;21.50;57.80
35668;DHT22;22158;59.280;17.806;2023-05-15T13:26:35;21.40;57.10
35668;DHT22;22158;59.280;17.806;2023-05-15T13:29:01;21.40;57.50
35668;DHT22;22158;59.280;17.806;2023-05-15T13:31:27;21.50;56.00
35668;DHT22;22158;59.280;17.806;2023-05-15T13:33:52;21.40;56.60
35668;DHT22;22158;59.280;17.806;2023-05-15T13:36:18;21.40;56.40
35668;DHT22;22158;59.280;17.806;2023-05-15T13:38:43;21.40;55.80
35668;DHT22;22158;59.280;17.806;2023-05-15T13:41:09;21.20;55.10
35668;DHT22;22158;59.280;17.806;2023-05-15T13:43:35;21.10;58.80
35668;DHT22;22158;59.280;17.806;2023-05-15T13:46:00;20.90;58.70
35668;DHT22;22158;59.280;17.806;2023-05-15T13:48:26;20.80;58.40
35668;DHT22;22158;59.280;17.806;2023-05-15T13:50:51;20.50;57.20
35668;DHT22;22158;59.280;17.806;2023-05-15T13:53:17;20.40;59.10
35668;DHT22;22158;59.280;17.806;2023-05-15T13:55:43;20.30;58.80
35668;DHT22;22158;59.280;17.806;2023-05-15T13:58:13;20.40;58.90
35668;DHT22;22158;59.280;17.806;2023-05-15T14:00:41;20.60;59.50
35668;DHT22;22158;59.280;17.806;2023-05-15T14:03:07;21.00;60.40
35668;DHT22;22158;59.280;17.806;2023-05-15T14:05:32;21.60;60.80
35668;DHT22;22158;59.280;17.806;2023-05-15T14:07:58;22.20;59.30
35668;DHT22;22158;59.280;17.806;2023-05-15T14:10:24;22.60;57.30
35668;DHT22;22158;59.280;17.806;2023-05-15T14:12:49;22.80;55.20
35668;DHT22;22158;59.280;17.806;2023-05-15T14:15:15;23.00;57.00
35668;DHT22;22158;59.280;17.806;2023-05-15T14:17:41;23.10;54.60
35668;DHT22;22158;59.280;17.806;2023-05-15T14:20:11;23.10;54.60
35668;DHT22;22158;59.280;17.806;2023-05-15T14:22:37;23.30;55.60
35668;DHT22;22158;59.280;17.806;2023-05-15T14:25:04;23.50;55.80
35668;DHT22;22158;59.280;17.806;2023-05-15T14:27:30;23.50;54.00
35668;DHT22;22158;59.280;17.806;2023-05-15T14:29:55;23.30;53.30
35668;DHT22;22158;59.280;17.806;2023-05-15T14:32:22;23.20;53.90
35668;DHT22;22158;59.280;17.806;2023-05-15T14:34:48;23.20;54.60
35668;DHT22;22158;59.280;17.806;2023-05-15T14:37:13;23.30;53.80
35668;DHT22;22158;59.280;17.806;2023-05-15T14:39:39;23.20;55.00
35668;DHT22;22158;59.280;17.806;2023-05-15T14:42:05;23.20;54.30
35668;DHT22;22158;59.280;17.806;2023-05-15T14:44:31;23.20;54.80
35668;DHT22;22158;59.280;17.806;2023-05-15T14:47:08;23.20;53.50
35668;DHT22;22158;59.280;17.806;2023-05-15T14:49:34;23.20;54.10
35668;DHT22;22158;59.280;17.806;2023-05-15T14:52:01;23.00;52.60
35668;DHT22;22158;59.280;17.806;2023-05-15T14:54:27;22.80;53.10
35668;DHT22;22158;59.280;17.806;2023-05-15T14:56:53;22.60;54.00
35668;DHT22;22158;59.280;17.806;2023-05-15T14:59:18;22.30;53.40
35668;DHT22;22158;59.280;17.806;2023-05-15T15:01:44;22.30;53.80
35668;DHT22;22158;59.280;17.806;2023-05-15T15:04:10;22.30;53.60
35668;DHT22;22158;59.280;17.806;2023-05-15T15:06:36;22.60;53.60
35668;DHT22;22158;59.280;17.806;2023-05-15T15:09:02;22.90;54.60
35668;DHT22;22158;59.280;17.806;2023-05-15T15:11:27;23.30;54.60
35668;DHT22;22158;59.280;17.806;2023-05-15T15:13:53;23.60;52.90
35668;DHT22;22158;59.280;17.806;2023-05-15T15:16:18;23.90;53.20
35668;DHT22;22158;59.280;17.806;2023-05-15T15:18:44;24.10;52.20
35668;DHT22;22158;59.280;17.806;2023-05-15T15:21:10;23.90;51.20
35668;DHT22;22158;59.280;17.806;2023-05-15T15:23:36;23.70;51.10
35668;DHT22;22158;59.280;17.806;2023-05-15T15:26:02;23.50;51.10
35668;DHT22;22158;59.280;17.806;2023-05-15T15:28:28;23.20;51.70
35668;DHT22;22158;59.280;17.806;2023-05-15T15:30:58;23.10;51.60
35668;DHT22;22158;59.280;17.806;2023-05-15T15:33:24;23.00;52.00
35668;DHT22;22158;59.280;17.806;2023-05-15T15:35:49;23.00;51.90
35668;DHT22;22158;59.280;17.806;2023-05-15T15:38:16;23.30;52.30
35668;DHT22;22158;59.280;17.806;2023-05-15T15:40:41;23.50;50.70
35668;DHT22;22158;59.280;17.806;2023-05-15T15:43:07;23.70;51.00
35668;DHT22;22158;59.280;17.806;2023-05-15T15:45:32;24.10;50.90
35668;DHT22;22158;59.280;17.806;2023-05-15T15:47:58;24.30;49.50
35668;DHT22;22158;59.280;17.806;2023-05-15T15:50:23;24.40;49.70
35668;DHT22;22158;59.280;17.806;2023-05-15T15:52:49;24.40;49.60
35668;DHT22;22158;59.280;17.806;2023-05-15T15:55:15;24.40;49.00
35668;DHT22;22158;59.280;17.806;2023-05-15T15:57:40;24.50;49.30
35668;DHT22;22158;59.280;17.806;2023-05-15T16:00:06;24.50;49.60
35668;DHT22;22158;59.280;17.806;2023-05-15T16:02:32;24.30;49.60
35668;DHT22;22158;59.280;17.806;2023-05-15T16:04:58;24.10;50.70
35668;DHT22;22158;59.280;17.806;2023-05-15T16:07:25;23.80;50.60
35668;DHT22;22158;59.280;17.806;2023-05-15T16:09:51;23.80;51.00
35668;DHT22;22158;59.280;17.806;2023-05-15T16:12:16;23.80;50.60
35668;DHT22;22158;59.280;17.806;2023-05-15T16:14:42;23.80;50.80
35668;DHT22;22158;59.280;17.806;2023-05-15T16:17:07;23.60;50.10
35668;DHT22;22158;59.280;17.806;2023-05-15T16:19:33;23.50;50.40
35668;DHT22;22158;59.280;17.806;2023-05-15T16:21:59;23.50;50.70
35668;DHT22;22158;59.280;17.806;2023-05-15T16:24:24;23.30;50.50
35668;DHT22;22158;59.280;17.806;2023-05-15T16:26:50;23.20;50.40
35668;DHT22;22158;59.280;17.806;2023-05-15T16:29:19;23.20;50.90
35668;DHT22;22158;59.280;17.806;2023-05-15T16:31:45;23.10;51.10
35668;DHT22;22158;59.280;17.806;2023-05-15T16:34:11;22.80;51.40
35668;DHT22;22158;59.280;17.806;2023-05-15T16:36:37;22.70;51.30
35668;DHT22;22158;59.280;17.806;2023-05-15T16:39:03;22.40;52.00
35668;DHT22;22158;59.280;17.806;2023-05-15T16:41:29;22.10;52.20
35668;DHT22;22158;59.280;17.806;2023-05-15T16:43:55;22.00;52.70
35668;DHT22;22158;59.280;17.806;2023-05-15T16:46:20;21.90;52.60
35668;DHT22;22158;59.280;17.806;2023-05-15T16:48:46;21.80;53.20
35668;DHT22;22158;59.280;17.806;2023-05-15T16:51:12;21.70;53.60
35668;DHT22;22158;59.280;17.806;2023-05-15T16:53:38;21.60;53.00
35668;DHT22;22158;59.280;17.806;2023-05-15T16:56:04;21.50;53.80
35668;DHT22;22158;59.280;17.806;2023-05-15T16:58:30;21.40;54.00
35668;DHT22;22158;59.280;17.806;2023-05-15T17:00:56;21.30;54.00
35668;DHT22;22158;59.280;17.806;2023-05-15T17:03:22;21.20;54.00
35668;DHT22;22158;59.280;17.806;2023-05-15T17:05:47;21.00;55.00
35668;DHT22;22158;59.280;17.806;2023-05-15T17:08:13;21.00;54.80
35668;DHT22;22158;59.280;17.806;2023-05-15T17:10:38;20.90;54.90
35668;DHT22;22158;59.280;17.806;2023-05-15T17:13:04;20.70;54.80
35668;DHT22;22158;59.280;17.806;2023-05-15T17:15:30;20.70;54.90
35668;DHT22;22158;59.280;17.806;2023-05-15T17:17:55;20.60;55.20
35668;DHT22;22158;59.280;17.806;2023-05-15T17:20:21;20.50;55.80
35668;DHT22;22158;59.280;17.806;2023-05-15T17:22:47;20.50;55.70
35668;DHT22;22158;59.280;17.806;2023-05-15T17:25:12;20.50;56.60
35668;DHT22;22158;59.280;17.806;2023-05-15T17:27:38;20.50;56.00
35668;DHT22;22158;59.280;17.806;2023-05-15T17:30:06;20.40;56.10
35668;DHT22;22158;59.280;17.806;2023-05-15T17:32:32;20.30;55.40
35668;DHT22;22158;59.280;17.806;2023-05-15T17:34:58;20.30;55.90
35668;DHT22;22158;59.280;17.806;2023-05-15T17:37:24;20.30;56.20
35668;DHT22;22158;59.280;17.806;2023-05-15T17:39:50;20.30;56.00
35668;DHT22;22158;59.280;17.806;2023-05-15T17:42:15;20.30;56.40
35668;DHT22;22158;59.280;17.806;2023-05-15T17:44:41;20.30;56.70
35668;DHT22;22158;59.280;17.806;2023-05-15T17:47:07;20.20;56.50
35668;DHT22;22158;59.280;17.806;2023-05-15T17:49:34;20.20;56.90
35668;DHT22;22158;59.280;17.806;2023-05-15T17:52:00;20.30;56.80
35668;DHT22;22158;59.280;17.806;2023-05-15T17:54:25;20.20;57.20
35668;DHT22;22158;59.280;17.806;2023-05-15T17:56:51;20.20;58.30
35668;DHT22;22158;59.280;17.806;2023-05-15T17:59:17;20.10;57.50
35668;DHT22;22158;59.280;17.806;2023-05-15T18:01:42;20.10;57.70
35668;DHT22;22158;59.280;17.806;2023-05-15T18:04:08;20.00;57.90
35668;DHT22;22158;59.280;17.806;2023-05-15T18:06:34;19.90;58.30
35668;DHT22;22158;59.280;17.806;2023-05-15T18:08:59;19.80;58.10
35668;DHT22;22158;59.280;17.806;2023-05-15T18:11:25;19.70;59.10
35668;DHT22;22158;59.280;17.806;2023-05-15T18:13:51;19.70;59.20
35668;DHT22;22158;59.280;17.806;2023-05-15T18:16:17;19.60;59.50
35668;DHT22;22158;59.280;17.806;2023-05-15T18:18:43;19.60;59.10
35668;DHT22;22158;59.280;17.806;2023-05-15T18:21:08;19.50;59.90
35668;DHT22;22158;59.280;17.806;2023-05-15T18:23:34;19.50;59.80
35668;DHT22;22158;59.280;17.806;2023-05-15T18:25:59;19.40;60.10
35668;DHT22;22158;59.280;17.806;2023-05-15T18:28:25;19.40;59.80
35668;DHT22;22158;59.280;17.806;2023-05-15T18:30:51;19.20;59.50
35668;DHT22;22158;59.280;17.806;2023-05-15T18:33:16;19.20;60.10
35668;DHT22;22158;59.280;17.806;2023-05-15T18:35:42;19.20;60.60
35668;DHT22;22158;59.280;17.806;2023-05-15T18:38:08;19.10;60.60
35668;DHT22;22158;59.280;17.806;2023-05-15T18:40:34;18.90;62.00
35668;DHT22;22158;59.280;17.806;2023-05-15T18:43:00;18.80;62.40
35668;DHT22;22158;59.280;17.806;2023-05-15T18:45:25;18.70;61.70
35668;DHT22;22158;59.280;17.806;2023-05-15T18:47:51;18.60;61.80
35668;DHT22;22158;59.280;17.806;2023-05-15T18:50:19;18.50;61.60
35668;DHT22;22158;59.280;17.806;2023-05-15T18:52:45;18.40;62.20
35668;DHT22;22158;59.280;17.806;2023-05-15T18:55:11;18.30;61.90
35668;DHT22;22158;59.280;17.806;2023-05-15T18:57:37;18.20;62.80
35668;DHT22;22158;59.280;17.806;2023-05-15T19:00:04;18.10;63.30
35668;DHT22;22158;59.280;17.806;2023-05-15T19:02:30;18.00;63.50
35668;DHT22;22158;59.280;17.806;2023-05-15T19:04:57;17.90;64.60
35668;DHT22;22158;59.280;17.806;2023-05-15T19:07:22;17.80;65.70
35668;DHT22;22158;59.280;17.806;2023-05-15T19:09:48;17.60;66.10
35668;DHT22;22158;59.280;17.806;2023-05-15T19:12:13;17.50;67.00
35668;DHT22;22158;59.280;17.806;2023-05-15T19:14:39;17.40;67.60
35668;DHT22;22158;59.280;17.806;2023-05-15T19:17:05;17.30;68.00
35668;DHT22;22158;59.280;17.806;2023-05-15T19:19:30;17.20;68.40
35668;DHT22;22158;59.280;17.806;2023-05-15T19:21:56;17.10;68.10
35668;DHT22;22158;59.280;17.806;2023-05-15T19:24:21;17.10;68.30
35668;DHT22;22158;59.280;17.806;2023-05-15T19:26:47;16.90;68.50
35668;DHT22;22158;59.280;17.806;2023-05-15T19:29:13;16.80;68.80
35668;DHT22;22158;59.280;17.806;2023-05-15T19:31:39;16.80;68.90
35668;DHT22;22158;59.280;17.806;2023-05-15T19:34:04;16.70;69.00
35668;DHT22;22158;59.280;17.806;2023-05-15T19:36:30;16.60;69.40
35668;DHT22;22158;59.280;17.806;2023-05-15T19:38:56;16.60;69.50
35668;DHT22;22158;59.280;17.806;2023-05-15T19:41:22;16.60;69.60
35668;DHT22;22158;59.280;17.806;2023-05-15T19:43:48;16.60;69.70
35668;DHT22;22158;59.280;17.806;2023-05-15T19:46:15;16.50;70.40
35668;DHT22;22158;59.280;17.806;2023-05-15T19:48:41;16.50;71.20
35668;DHT22;22158;59.280;17.806;2023-05-15T19:51:07;16.50;70.70
35668;DHT22;22158;59.280;17.806;2023-05-15T19:53:33;16.40;70.90
35668;DHT22;22158;59.280;17.806;2023-05-15T19:55:59;16.40;71.30
35668;DHT22;22158;59.280;17.806;2023-05-15T19:58:24;16.30;72.00
35668;DHT22;22158;59.280;17.806;2023-05-15T20:00:50;16.30;72.40
35668;DHT22;22158;59.280;17.806;2023-05-15T20:03:17;16.20;72.60
35668;DHT22;22158;59.280;17.806;2023-05-15T20:05:43;16.10;72.90
35668;DHT22;22158;59.280;17.806;2023-05-15T20:08:09;16.10;73.40
35668;DHT22;22158;59.280;17.806;2023-05-15T20:10:35;16.00;73.50
35668;DHT22;22158;59.280;17.806;2023-05-15T20:13:00;16.00;74.00
35668;DHT22;22158;59.280;17.806;2023-05-15T20:15:27;15.90;74.80
35668;DHT22;22158;59.280;17.806;2023-05-15T20:17:53;15.80;75.20
35668;DHT22;22158;59.280;17.806;2023-05-15T20:20:19;15.70;75.80
35668;DHT22;22158;59.280;17.806;2023-05-15T20:22:45;15.70;76.10
35668;DHT22;22158;59.280;17.806;2023-05-15T20:25:11;15.60;76.60
35668;DHT22;22158;59.280;17.806;2023-05-15T20:27:37;15.60;77.10
35668;DHT22;22158;59.280;17.806;2023-05-15T20:30:03;15.50;77.60